Time;durP1;ratioP1;P1;durP2;ratioP2;P2;SDS_P1;SDS_P2;PMS_P1;PMS_P2;Temp;Humidity;BMP_temperature;BMP_pressure;BME280_temperature;BME280_humidity;BME280_pressure;Samples;Min_cycle;Max_cycle;Signal;HPM_P1;HPM_P2
2022/10/03 00:01:42;;;;;;;;;;;;;;;22.62;44.10;100624.86;103603;1317;60767;-85
2022/10/03 00:04:12;;;;;;;;;;;;;;;22.61;44.17;100625.95;104045;1316;62170;-82
2022/10/03 00:06:46;;;;;;;;;;;;;;;22.60;44.37;100620.08;103638;1317;72805;-83
2022/10/03 00:09:30;;;;;;;;;;;;;;;22.60;44.14;100618.13;103897;1318;75909;-83
2022/10/03 00:11:56;;;;;;;;;;;;;;;22.60;44.11;100611.88;103852;1317;62081;-83
2022/10/03 00:14:22;;;;;;;;;;;;;;;22.60;44.09;100608.48;103876;1317;62120;-83
2022/10/03 00:16:53;;;;;;;;;;;;;;;22.60;44.05;100604.16;103881;1317;72868;-84
2022/10/03 00:19:18;;;;;;;;;;;;;;;22.60;44.19;100594.67;104425;1311;76421;-82
2022/10/03 00:21:56;;;;;;;;;;;;;;;22.59;44.05;100583.95;104647;1309;62213;-83
2022/10/03 00:24:31;;;;;;;;;;;;;;;22.59;44.20;100577.34;104659;1309;62133;-82
2022/10/03 00:27:29;;;;;;;;;;;;;;;22.59;44.17;100575.46;104488;1309;74518;-83
2022/10/03 00:30:00;;;;;;;;;;;;;;;22.59;44.09;100574.05;104060;1317;75485;-84
2022/10/03 00:32:29;;;;;;;;;;;;;;;22.59;44.13;100571.55;104041;1316;62012;-86
2022/10/03 00:35:13;;;;;;;;;;;;;;;22.59;44.01;100569.58;103834;1317;62551;-83
2022/10/03 00:37:58;;;;;;;;;;;;;;;22.59;44.13;100564.54;103840;1317;72020;-83
2022/10/03 00:40:47;;;;;;;;;;;;;;;22.59;44.06;100559.02;103464;1317;75755;-83
2022/10/03 00:43:21;;;;;;;;;;;;;;;22.59;44.16;100564.57;103520;1317;62177;-84
2022/10/03 00:45:54;;;;;;;;;;;;;;;22.59;44.09;100564.57;103963;1317;62090;-85
2022/10/03 00:48:25;;;;;;;;;;;;;;;22.59;44.03;100568.73;103672;1317;72917;-84
2022/10/03 00:51:12;;;;;;;;;;;;;;;22.59;44.06;100574.06;103902;1317;76558;-83
2022/10/03 00:53:37;;;;;;;;;;;;;;;22.59;44.13;100575.35;103872;1317;61936;-82
2022/10/03 00:56:21;;;;;;;;;;;;;;;22.59;44.04;100575.90;103894;1317;63296;-84
2022/10/03 00:58:53;;;;;;;;;;;;;;;22.59;44.05;100571.23;104025;1317;72971;-82
2022/10/03 01:01:19;;;;;;;;;;;;;;;22.59;44.03;100567.45;104005;1317;76616;-82
2022/10/03 01:03:45;;;;;;;;;;;;;;;22.59;44.35;100564.56;103647;1317;63283;-83
2022/10/03 01:06:29;;;;;;;;;;;;;;;22.58;44.25;100557.67;104077;1308;62085;-84
2022/10/03 01:08:58;;;;;;;;;;;;;;;22.58;43.94;100558.02;104605;1309;72838;-82
2022/10/03 01:11:36;;;;;;;;;;;;;;;22.58;43.99;100563.77;104526;1308;75323;-85
2022/10/03 01:14:03;;;;;;;;;;;;;;;22.58;44.00;100557.16;104534;1308;61881;-83
2022/10/03 01:16:42;;;;;;;;;;;;;;;22.57;43.99;100558.10;104453;1309;62111;-83
2022/10/03 01:19:27;;;;;;;;;;;;;;;22.57;43.95;100562.04;104500;1309;72697;-82
2022/10/03 01:22:11;;;;;;;;;;;;;;;22.57;43.89;100557.59;104424;1308;75364;-84
2022/10/03 01:24:46;;;;;;;;;;;;;;;22.57;43.93;100561.89;104523;1308;62102;-84
2022/10/03 01:27:15;;;;;;;;;;;;;;;22.57;43.90;100569.79;104457;1306;62197;-84
2022/10/03 01:32:39;;;;;;;;;;;;;;;22.57;43.95;100572.31;104468;1308;77224;-83
2022/10/03 01:35:10;;;;;;;;;;;;;;;22.57;43.96;100567.11;104617;1308;61929;-84
2022/10/03 01:37:54;;;;;;;;;;;;;;;22.57;43.83;100564.05;104536;1308;62078;-82
2022/10/03 01:40:24;;;;;;;;;;;;;;;22.56;43.82;100563.42;104486;1309;73764;-84
2022/10/03 01:42:57;;;;;;;;;;;;;;;22.56;43.84;100571.84;104437;1309;76434;-83
2022/10/03 01:45:25;;;;;;;;;;;;;;;22.56;43.94;100577.95;104641;1309;62125;-83
2022/10/03 01:48:11;;;;;;;;;;;;;;;22.55;43.81;100580.13;104513;1309;62121;-84
2022/10/03 01:50:55;;;;;;;;;;;;;;;22.56;43.92;100582.77;104608;1308;73074;-83
2022/10/03 01:53:40;;;;;;;;;;;;;;;22.56;43.93;100582.25;104532;1309;74542;-83
2022/10/03 01:56:15;;;;;;;;;;;;;;;22.56;43.88;100584.41;104611;1308;61955;-82
2022/10/03 01:58:47;;;;;;;;;;;;;;;22.55;43.76;100579.27;104531;1308;62085;-86
2022/10/03 02:01:25;;;;;;;;;;;;;;;22.55;43.82;100584.45;104481;1309;71747;-84
2022/10/03 02:03:58;;;;;;;;;;;;;;;22.55;43.68;100582.66;104493;1309;76769;-82
2022/10/03 02:06:31;;;;;;;;;;;;;;;22.55;43.82;100581.44;104523;1308;61987;-83
2022/10/03 02:09:15;;;;;;;;;;;;;;;22.55;43.84;100582.50;104465;1309;62053;-85
2022/10/03 02:11:52;;;;;;;;;;;;;;;22.54;43.72;100586.85;104470;1308;72855;-85
2022/10/03 02:14:23;;;;;;;;;;;;;;;22.54;43.83;100590.98;104526;1309;75581;-81
2022/10/03 02:16:56;;;;;;;;;;;;;;;22.54;43.74;100597.33;104449;1309;62548;-83
2022/10/03 02:19:29;;;;;;;;;;;;;;;22.54;43.76;100589.60;104505;1309;61983;-84
2022/10/03 02:21:56;;;;;;;;;;;;;;;22.54;43.79;100590.10;104583;1309;73098;-85
2022/10/03 02:24:31;;;;;;;;;;;;;;;22.53;43.75;100592.14;104428;1309;75665;-82
2022/10/03 02:26:57;;;;;;;;;;;;;;;22.54;43.79;100593.36;104543;1309;62104;-82
2022/10/03 02:29:58;;;;;;;;;;;;;;;22.54;43.76;100595.37;104521;1308;62051;-83
2022/10/03 02:32:42;;;;;;;;;;;;;;;22.53;43.72;100584.42;104046;1317;72791;-83
2022/10/03 02:35:09;;;;;;;;;;;;;;;22.53;43.70;100577.10;104465;1308;75999;-84
2022/10/03 02:37:40;;;;;;;;;;;;;;;22.53;43.65;100575.31;104525;1309;61989;-83
2022/10/03 02:40:09;;;;;;;;;;;;;;;22.53;43.65;100576.02;104513;1308;61967;-83
2022/10/03 02:42:54;;;;;;;;;;;;;;;22.53;43.73;100574.08;104622;1309;72782;-83
2022/10/03 02:45:31;;;;;;;;;;;;;;;22.52;43.69;100580.40;104525;1308;76006;-83
2022/10/03 02:48:18;;;;;;;;;;;;;;;22.52;43.70;100582.36;104646;1309;61933;-84
2022/10/03 02:51:06;;;;;;;;;;;;;;;22.52;43.68;100582.36;104617;1307;62098;-80
2022/10/03 02:53:51;;;;;;;;;;;;;;;22.52;43.68;100578.79;104729;1309;72326;-80
2022/10/03 02:56:35;;;;;;;;;;;;;;;22.52;43.71;100577.02;104533;1309;75317;-80
2022/10/03 02:59:19;;;;;;;;;;;;;;;22.52;43.63;100582.91;104534;1308;61970;-83
2022/10/03 03:01:47;;;;;;;;;;;;;;;22.52;43.61;100590.27;104636;1309;62611;-82
2022/10/03 03:04:32;;;;;;;;;;;;;;;22.52;43.60;100584.88;104513;1308;73922;-83
2022/10/03 03:07:01;;;;;;;;;;;;;;;22.52;43.66;100586.66;104465;1309;76659;-84
2022/10/03 03:09:33;;;;;;;;;;;;;;;22.52;43.65;100583.83;104637;1308;61989;-82
2022/10/03 03:12:19;;;;;;;;;;;;;;;22.52;43.53;100582.25;104443;1309;62631;-83
2022/10/03 03:14:45;;;;;;;;;;;;;;;22.52;43.53;100584.04;104055;1316;72713;-84
2022/10/03 03:17:21;;;;;;;;;;;;;;;22.51;43.51;100586.94;103882;1317;62263;-85
2022/10/03 03:19:52;;;;;;;;;;;;;;;22.51;43.49;100590.88;103853;1317;62028;-87
2022/10/03 03:22:33;;;;;;;;;;;;;;;22.51;43.53;100590.14;103875;1317;62216;-86
2022/10/03 03:25:16;;;;;;;;;;;;;;;22.51;43.42;100592.68;104002;1317;72802;-84
2022/10/03 03:27:45;;;;;;;;;;;;;;;22.51;43.50;100591.46;104072;1316;75448;-83
2022/10/03 03:30:17;;;;;;;;;;;;;;;22.51;43.58;100588.95;103890;1317;62280;-81
2022/10/03 03:32:55;;;;;;;;;;;;;;;22.51;43.42;100586.42;103652;1317;62202;-84
2022/10/03 03:35:21;;;;;;;;;;;;;;;22.51;43.47;100583.36;103808;1317;73948;-82
2022/10/03 03:37:56;;;;;;;;;;;;;;;22.51;43.50;100578.90;103991;1316;63107;-84
2022/10/03 03:40:48;;;;;;;;;;;;;;;22.50;43.34;100576.44;103669;1317;62725;-84
2022/10/03 03:43:20;;;;;;;;;;;;;;;22.51;43.47;100570.50;103502;1317;62010;-83
2022/10/03 03:45:58;;;;;;;;;;;;;;;22.50;43.30;100565.31;103644;1317;73750;-84
2022/10/03 03:48:48;;;;;;;;;;;;;;;22.50;43.40;100554.38;103456;1316;76132;-84
2022/10/03 03:51:21;;;;;;;;;;;;;;;22.50;43.31;100554.95;103705;1319;62096;-84
2022/10/03 03:54:02;;;;;;;;;;;;;;;22.50;43.46;100550.10;104517;1309;62082;-82
2022/10/03 03:56:40;;;;;;;;;;;;;;;22.50;43.49;100564.80;104593;1309;72700;-85
2022/10/03 03:59:12;;;;;;;;;;;;;;;22.50;43.39;100578.45;104493;1309;75824;-82
2022/10/03 04:01:55;;;;;;;;;;;;;;;22.50;43.43;100573.63;104634;1309;62217;-83
2022/10/03 04:04:21;;;;;;;;;;;;;;;22.49;43.40;100558.03;104502;1309;62216;-83
2022/10/03 04:06:57;;;;;;;;;;;;;;;22.49;43.29;100562.00;104505;1307;62077;-85
2022/10/03 04:09:48;;;;;;;;;;;;;;;22.49;43.29;100558.09;104507;1309;75778;-83
2022/10/03 04:12:28;;;;;;;;;;;;;;;22.48;43.33;100556.86;104494;1309;62528;-82
2022/10/03 04:15:29;;;;;;;;;;;;;;;22.48;43.42;100565.70;104505;1308;63032;-83
2022/10/03 04:21:19;;;;;;;;;;;;;;;22.39;43.03;100574.96;103970;1316;75947;-81
2022/10/03 04:23:45;;;;;;;;;;;;;;;22.35;42.88;100576.40;103775;1316;62116;-84
2022/10/03 04:26:10;;;;;;;;;;;;;;;22.32;42.93;100581.66;103753;1317;62120;-83
2022/10/03 04:28:35;;;;;;;;;;;;;;;22.29;42.85;100577.36;103894;1316;60986;-82
2022/10/03 04:31:07;;;;;;;;;;;;;;;22.27;42.82;100570.90;103810;1317;62255;-82
2022/10/03 04:33:33;;;;;;;;;;;;;;;22.24;42.71;100572.52;103843;1316;62087;-83
2022/10/03 04:36:24;;;;;;;;;;;;;;;22.20;42.38;100571.83;103539;1317;62109;-83
2022/10/03 04:39:00;;;;;;;;;;;;;;;22.14;42.43;100570.13;103467;1316;73959;-81
2022/10/03 04:41:28;;;;;;;;;;;;;;;22.08;42.33;100570.45;103711;1317;75641;-82
2022/10/03 04:44:18;;;;;;;;;;;;;;;22.03;42.17;100572.08;103641;1317;62192;-82
2022/10/03 04:46:49;;;;;;;;;;;;;;;21.98;41.94;100568.34;103571;1317;62020;-83
2022/10/03 04:49:34;;;;;;;;;;;;;;;21.93;41.91;100567.28;103430;1317;73353;-83
2022/10/03 04:52:15;;;;;;;;;;;;;;;21.85;41.79;100568.48;103869;1308;75487;-83
2022/10/03 04:54:43;;;;;;;;;;;;;;;21.77;41.49;100570.34;104305;1309;63403;-84
2022/10/03 04:57:27;;;;;;;;;;;;;;;21.68;41.19;100568.50;104286;1310;62167;-83
2022/10/03 05:00:27;;;;;;;;;;;;;;;21.60;41.21;100568.77;104233;1307;73442;-83
2022/10/03 05:03:04;;;;;;;;;;;;;;;21.51;41.19;100568.55;103947;1309;77046;-83
2022/10/03 05:05:46;;;;;;;;;;;;;;;21.46;41.19;100570.58;103229;1312;62201;-83
2022/10/03 05:08:15;;;;;;;;;;;;;;;21.49;41.18;100566.59;103917;1310;62531;-81
2022/10/03 05:10:59;;;;;;;;;;;;;;;21.55;41.23;100562.19;105076;1311;72852;-83
2022/10/03 05:13:38;;;;;;;;;;;;;;;21.62;41.07;100555.57;105127;1309;75282;-83
2022/10/03 05:16:06;;;;;;;;;;;;;;;21.68;41.07;100552.78;105123;1309;60187;-83
2022/10/03 05:18:44;;;;;;;;;;;;;;;21.71;40.93;100553.06;104333;1309;62362;-83
2022/10/03 05:21:13;;;;;;;;;;;;;;;21.75;40.99;100562.59;104351;1311;72801;-82
2022/10/03 05:23:50;;;;;;;;;;;;;;;21.78;40.83;100561.71;104293;1312;76620;-83
2022/10/03 05:26:27;;;;;;;;;;;;;;;21.78;40.58;100564.70;104026;1309;63242;-84
2022/10/03 05:29:11;;;;;;;;;;;;;;;21.80;40.70;100569.24;103696;1309;61973;-83
2022/10/03 05:31:43;;;;;;;;;;;;;;;21.81;40.56;100565.55;103987;1309;71448;-83
2022/10/03 05:34:39;;;;;;;;;;;;;;;21.83;40.59;100560.42;104376;1308;76453;-84
2022/10/03 05:37:24;;;;;;;;;;;;;;;21.83;40.65;100553.36;103703;1308;62076;-83
2022/10/03 05:39:55;;;;;;;;;;;;;;;21.84;40.51;100551.35;104282;1307;62005;-83
2022/10/03 05:42:26;;;;;;;;;;;;;;;21.85;40.38;100542.73;104346;1308;73510;-82
2022/10/03 05:45:06;;;;;;;;;;;;;;;21.85;40.46;100543.76;104322;1309;76385;-85
2022/10/03 05:47:45;;;;;;;;;;;;;;;21.85;40.35;100553.28;104417;1308;60723;-86
2022/10/03 05:50:15;;;;;;;;;;;;;;;21.84;40.19;100557.09;104378;1308;60687;-83
2022/10/03 05:52:46;;;;;;;;;;;;;;;21.84;40.28;100554.20;104382;1309;73243;-83
2022/10/03 05:55:11;;;;;;;;;;;;;;;21.77;40.16;100558.73;104276;1309;75620;-83
2022/10/03 05:57:46;;;;;;;;;;;;;;;21.70;40.03;100562.27;104525;1308;62100;-83
2022/10/03 06:00:26;;;;;;;;;;;;;;;21.68;40.20;100559.60;104388;1308;61875;-84
2022/10/03 06:03:10;;;;;;;;;;;;;;;21.69;40.18;100556.09;104432;1308;72272;-83
2022/10/03 06:05:40;;;;;;;;;;;;;;;21.71;40.21;100558.24;105125;1308;76633;-84
2022/10/03 06:08:09;;;;;;;;;;;;;;;21.69;40.21;100558.45;104454;1308;60525;-83
2022/10/03 06:10:37;;;;;;;;;;;;;;;21.65;40.19;100560.53;104372;1307;62181;-82
2022/10/03 06:13:18;;;;;;;;;;;;;;;21.67;40.21;100561.06;104369;1308;72693;-82
2022/10/03 06:15:53;;;;;;;;;;;;;;;21.70;40.31;100557.80;104415;1307;76018;-82
2022/10/03 06:18:24;;;;;;;;;;;;;;;21.73;40.34;100560.46;104447;1308;62557;-83
2022/10/03 06:21:09;;;;;;;;;;;;;;;21.75;40.36;100564.91;104451;1308;61839;-84
2022/10/03 06:23:46;;;;;;;;;;;;;;;21.77;40.43;100571.22;104423;1308;72379;-83
2022/10/03 06:26:24;;;;;;;;;;;;;;;21.79;40.48;100568.05;104719;1308;75652;-82
2022/10/03 06:29:02;;;;;;;;;;;;;;;21.80;40.33;100577.50;104303;1309;60837;-82
2022/10/03 06:31:34;;;;;;;;;;;;;;;21.81;40.35;100581.87;104427;1307;61663;-83
2022/10/03 06:34:19;;;;;;;;;;;;;;;21.81;40.26;100582.91;104432;1307;72918;-83
2022/10/03 06:36:52;;;;;;;;;;;;;;;21.83;40.24;100582.64;104298;1308;75982;-85
2022/10/03 06:39:36;;;;;;;;;;;;;;;21.83;40.19;100582.27;104288;1308;60521;-84
2022/10/03 06:42:13;;;;;;;;;;;;;;;21.83;40.11;100583.34;104348;1309;61977;-83
2022/10/03 06:44:51;;;;;;;;;;;;;;;21.82;39.94;100584.45;104388;1308;74138;-85
2022/10/03 06:47:43;;;;;;;;;;;;;;;21.82;40.00;100590.58;104310;1308;76780;-83
2022/10/03 06:50:15;;;;;;;;;;;;;;;21.81;39.89;100593.86;104355;1308;60311;-85
2022/10/03 06:53:00;;;;;;;;;;;;;;;21.81;39.82;100592.64;104353;1308;62182;-83
2022/10/03 06:55:26;;;;;;;;;;;;;;;21.76;39.74;100600.54;104209;1306;72825;-83
2022/10/03 06:58:08;;;;;;;;;;;;;;;21.69;39.74;100595.67;103861;1308;75743;-83
2022/10/03 07:01:00;;;;;;;;;;;;;;;21.56;39.74;100595.62;103625;1309;62037;-82
2022/10/03 07:03:29;;;;;;;;;;;;;;;21.44;39.69;100596.83;103017;1314;60406;-81
2022/10/03 07:06:04;;;;;;;;;;;;;;;21.39;39.84;100600.27;103741;1314;73025;-81
2022/10/03 07:08:52;;;;;;;;;;;;;;;21.38;39.80;100595.29;103856;1314;75617;-83
2022/10/03 07:11:29;;;;;;;;;;;;;;;21.44;40.03;100595.91;104678;1313;60281;-81
2022/10/03 07:14:07;;;;;;;;;;;;;;;21.48;39.89;100591.53;104485;1314;60629;-82
2022/10/03 07:16:58;;;;;;;;;;;;;;;21.51;39.90;100583.76;103825;1314;72922;-82
2022/10/03 07:19:25;;;;;;;;;;;;;;;21.55;39.93;100579.19;103866;1314;75495;-83
2022/10/03 07:22:13;;;;;;;;;;;;;;;21.57;39.98;100571.34;104544;1314;61463;-82
2022/10/03 07:24:51;;;;;;;;;;;;;;;21.61;39.85;100576.44;104002;1314;61607;-81
2022/10/03 07:27:40;;;;;;;;;;;;;;;21.64;40.02;100574.77;103838;1314;72630;-82
2022/10/03 07:30:20;;;;;;;;;;;;;;;21.66;40.00;100574.03;103576;1314;74409;-83
2022/10/03 07:32:48;;;;;;;;;;;;;;;21.68;39.99;100574.44;103828;1314;60104;-83
2022/10/03 07:38:56;;;;;;;;;;;;;;;21.70;39.97;100575.76;103962;1314;62111;-82
2022/10/03 07:41:31;;;;;;;;;;;;;;;21.73;40.10;100573.29;104449;1309;76792;-83
2022/10/03 07:44:06;;;;;;;;;;;;;;;21.75;40.15;100580.36;104383;1308;62015;-84
2022/10/03 07:46:50;;;;;;;;;;;;;;;21.77;40.21;100584.52;105139;1308;61321;-84
2022/10/03 07:49:19;;;;;;;;;;;;;;;21.79;40.30;100582.95;104862;1307;72805;-84
2022/10/03 07:52:03;;;;;;;;;;;;;;;21.79;40.26;100580.09;104376;1308;75576;-83
2022/10/03 07:54:33;;;;;;;;;;;;;;;21.79;40.31;100578.28;104302;1308;61998;-83
2022/10/03 07:57:05;;;;;;;;;;;;;;;21.80;40.25;100574.42;104364;1308;60617;-82
2022/10/03 07:59:48;;;;;;;;;;;;;;;21.80;40.17;100570.32;104451;1308;73850;-83
2022/10/03 08:02:34;;;;;;;;;;;;;;;21.77;40.16;100568.19;104484;1308;75367;-83
2022/10/03 08:05:07;;;;;;;;;;;;;;;21.75;40.23;100565.87;103830;1308;61958;-83
2022/10/03 08:07:52;;;;;;;;;;;;;;;21.74;40.17;100562.13;104487;1309;61522;-83
2022/10/03 08:10:36;;;;;;;;;;;;;;;21.73;40.46;100562.20;104442;1308;72888;-83
2022/10/03 08:13:06;;;;;;;;;;;;;;;21.75;40.48;100560.84;103852;1308;76665;-83
2022/10/03 08:15:46;;;;;;;;;;;;;;;21.75;40.48;100558.86;104036;1311;62144;-84
2022/10/03 08:18:30;;;;;;;;;;;;;;;21.76;40.52;100557.54;104433;1308;62193;-82
2022/10/03 08:20:57;;;;;;;;;;;;;;;21.77;40.62;100548.86;104323;1308;72853;-82
2022/10/03 08:23:35;;;;;;;;;;;;;;;21.80;40.56;100543.42;104269;1308;76593;-84
2022/10/03 08:26:03;;;;;;;;;;;;;;;21.82;40.56;100537.90;104358;1308;60384;-83
2022/10/03 08:28:42;;;;;;;;;;;;;;;21.84;40.59;100538.45;104364;1308;64785;-82
2022/10/03 08:31:10;;;;;;;;;;;;;;;21.87;40.60;100538.96;104083;1309;73065;-83
2022/10/03 08:33:43;;;;;;;;;;;;;;;21.89;40.63;100538.95;104420;1308;75356;-83
2022/10/03 08:36:12;;;;;;;;;;;;;;;21.91;40.67;100542.20;104377;1308;60761;-84
2022/10/03 08:38:56;;;;;;;;;;;;;;;21.93;40.78;100535.22;104250;1308;62007;-82
2022/10/03 08:41:46;;;;;;;;;;;;;;;21.96;40.76;100531.47;104365;1308;72881;-84
2022/10/03 08:44:31;;;;;;;;;;;;;;;21.97;40.80;100523.14;104093;1308;75633;-82
2022/10/03 08:47:05;;;;;;;;;;;;;;;21.99;40.84;100524.77;104368;1308;61110;-82
2022/10/03 08:49:36;;;;;;;;;;;;;;;22.00;40.80;100521.06;104343;1308;63008;-83
2022/10/03 08:52:02;;;;;;;;;;;;;;;22.01;40.80;100517.39;104319;1306;73903;-82
2022/10/03 08:54:31;;;;;;;;;;;;;;;22.02;40.76;100516.81;104360;1308;62075;-82
2022/10/03 08:57:05;;;;;;;;;;;;;;;22.02;40.80;100519.30;104480;1307;61178;-82
2022/10/03 08:59:30;;;;;;;;;;;;;;;22.01;40.77;100519.00;104436;1307;61951;-83
2022/10/03 09:02:14;;;;;;;;;;;;;;;22.00;40.82;100516.21;104386;1308;62149;-83
2022/10/03 09:04:49;;;;;;;;;;;;;;;21.97;40.89;100516.52;104378;1308;76687;-82
2022/10/03 09:07:37;;;;;;;;;;;;;;;21.92;40.93;100513.77;104482;1308;62035;-83
2022/10/03 09:10:02;;;;;;;;;;;;;;;21.93;41.18;100513.41;104017;1308;60464;-82
2022/10/03 09:12:43;;;;;;;;;;;;;;;21.91;41.04;100505.30;104339;1308;63311;-83
2022/10/03 09:15:28;;;;;;;;;;;;;;;21.88;41.12;100504.27;104191;1308;76443;-83
2022/10/03 09:17:59;;;;;;;;;;;;;;;21.84;40.99;100500.66;104272;1308;59924;-83
2022/10/03 09:20:25;;;;;;;;;;;;;;;21.83;41.13;100497.14;103900;1308;62214;-82
2022/10/03 09:23:20;;;;;;;;;;;;;;;21.81;41.04;100500.16;104012;1308;60319;-82
2022/10/03 09:26:05;;;;;;;;;;;;;;;21.79;41.12;100496.58;103948;1308;76249;-82
2022/10/03 09:28:36;;;;;;;;;;;;;;;21.80;41.05;100493.85;104530;1308;62042;-82
2022/10/03 09:31:31;;;;;;;;;;;;;;;21.81;41.17;100489.10;104558;1308;62010;-83
2022/10/03 09:34:02;;;;;;;;;;;;;;;21.84;41.16;100488.52;103871;1309;74032;-82
2022/10/03 09:36:46;;;;;;;;;;;;;;;21.84;41.23;100481.50;104318;1308;75448;-83
2022/10/03 09:39:32;;;;;;;;;;;;;;;21.86;41.04;100480.09;104244;1310;60987;-83
2022/10/03 09:41:58;;;;;;;;;;;;;;;21.88;41.07;100477.79;103926;1309;62197;-82
2022/10/03 09:44:26;;;;;;;;;;;;;;;21.88;41.21;100469.88;103761;1309;63024;-82
2022/10/03 09:47:26;;;;;;;;;;;;;;;21.87;41.17;100469.46;103831;1308;75518;-82
2022/10/03 09:50:18;;;;;;;;;;;;;;;21.86;41.16;100473.77;104351;1308;61936;-81
2022/10/03 09:52:52;;;;;;;;;;;;;;;21.86;41.22;100470.23;104366;1308;59981;-83
2022/10/03 09:55:24;;;;;;;;;;;;;;;21.89;41.25;100473.42;104003;1308;74176;-82
2022/10/03 09:58:08;;;;;;;;;;;;;;;21.87;41.22;100477.27;103953;1308;75465;-82
2022/10/03 10:00:53;;;;;;;;;;;;;;;21.85;41.20;100475.13;104163;1308;61866;-83
2022/10/03 10:03:35;;;;;;;;;;;;;;;21.83;41.25;100474.56;103210;1314;918553;-82
2022/10/03 10:06:01;;;;;;;;;;;;;;;21.82;41.37;100466.64;103995;1314;73223;-82
2022/10/03 10:08:39;;;;;;;;;;;;;;;21.81;41.41;100468.09;103730;1314;62350;-83
2022/10/03 10:11:10;;;;;;;;;;;;;;;21.83;41.60;100469.38;104210;1313;61889;-83
2022/10/03 10:13:41;;;;;;;;;;;;;;;21.85;41.65;100469.39;104032;1314;62975;-83
2022/10/03 10:16:08;;;;;;;;;;;;;;;21.85;41.88;100463.85;103841;1314;73078;-83
2022/10/03 10:18:39;;;;;;;;;;;;;;;21.87;41.78;100461.04;104669;1315;75821;-83
2022/10/03 10:21:30;;;;;;;;;;;;;;;21.88;41.88;100455.02;104682;1314;60253;-84
2022/10/03 10:24:14;;;;;;;;;;;;;;;21.86;41.94;100456.92;103621;1317;61970;-83
2022/10/03 10:26:43;;;;;;;;;;;;;;;21.88;41.95;100450.73;104100;1314;73714;-84
2022/10/03 10:29:16;;;;;;;;;;;;;;;21.88;42.00;100447.45;104083;1314;75119;-82
2022/10/03 10:31:42;;;;;;;;;;;;;;;21.89;41.98;100448.50;104075;1314;61923;-83
2022/10/03 10:34:08;;;;;;;;;;;;;;;21.88;42.04;100446.77;103990;1314;61988;-86
2022/10/03 10:37:03;;;;;;;;;;;;;;;21.89;42.11;100445.11;103915;1314;73710;-84
2022/10/03 10:39:48;;;;;;;;;;;;;;;21.86;42.12;100444.59;104036;1315;76775;-85
2022/10/03 10:42:26;;;;;;;;;;;;;;;21.86;42.04;100450.20;104300;1311;61836;-85
2022/10/03 10:45:10;;;;;;;;;;;;;;;21.88;42.11;100443.33;104108;1311;61961;-83
2022/10/03 10:47:47;;;;;;;;;;;;;;;21.90;42.22;100445.86;104228;1308;73924;-83
2022/10/03 10:50:19;;;;;;;;;;;;;;;21.91;42.18;100444.23;104205;1311;74716;-82
2022/10/03 10:53:03;;;;;;;;;;;;;;;21.88;42.30;100435.42;104270;1311;61494;-83
2022/10/03 10:55:28;;;;;;;;;;;;;;;21.88;42.27;100427.79;104240;1311;61884;-83
2022/10/03 10:58:05;;;;;;;;;;;;;;;21.89;42.45;100418.42;104140;1311;62196;-83
2022/10/03 11:00:43;;;;;;;;;;;;;;;21.91;42.31;100416.98;104068;1310;75694;-82
2022/10/03 11:03:28;;;;;;;;;;;;;;;21.94;42.51;100418.90;103997;1309;60255;-83
2022/10/03 11:06:21;;;;;;;;;;;;;;;21.97;42.70;100414.05;104472;1309;61478;-83
2022/10/03 11:08:49;;;;;;;;;;;;;;;21.96;42.61;100411.41;104484;1311;74026;-83
2022/10/03 11:11:20;;;;;;;;;;;;;;;21.94;42.74;100411.38;104359;1311;75559;-82
2022/10/03 11:13:49;;;;;;;;;;;;;;;21.95;42.69;100414.15;104398;1311;61637;-83
2022/10/03 11:16:19;;;;;;;;;;;;;;;21.96;42.79;100412.68;104312;1310;62043;-82
2022/10/03 11:18:59;;;;;;;;;;;;;;;21.95;42.74;100415.93;104278;1311;72805;-83
2022/10/03 11:21:25;;;;;;;;;;;;;;;21.97;42.71;100411.51;104356;1311;76501;-84
2022/10/03 11:24:06;;;;;;;;;;;;;;;21.98;42.66;100410.86;104329;1311;60254;-85
2022/10/03 11:26:50;;;;;;;;;;;;;;;21.98;42.64;100410.48;104283;1310;62055;-82
2022/10/03 11:29:24;;;;;;;;;;;;;;;21.98;42.66;100403.19;104230;1311;73956;-83
2022/10/03 11:31:53;;;;;;;;;;;;;;;21.96;42.66;100405.50;104173;1309;75437;-84
2022/10/03 11:34:28;;;;;;;;;;;;;;;21.97;42.58;100393.20;104161;1310;62065;-86
2022/10/03 11:37:05;;;;;;;;;;;;;;;22.00;42.73;100391.56;103763;1310;62239;-87
2022/10/03 11:39:31;;;;;;;;;;;;;;;22.01;42.69;100387.66;103999;1311;72875;-86
2022/10/03 11:41:59;;;;;;;;;;;;;;;22.02;42.75;100384.55;104131;1311;62126;-82
2022/10/03 11:44:31;;;;;;;;;;;;;;;22.04;42.88;100383.51;103836;1310;62025;-84
2022/10/03 11:47:09;;;;;;;;;;;;;;;22.04;42.82;100389.91;103857;1310;61880;-83
2022/10/03 11:49:53;;;;;;;;;;;;;;;22.02;42.74;100393.52;103986;1311;73756;-83
2022/10/03 11:52:28;;;;;;;;;;;;;;;22.00;42.77;100395.98;103849;1310;76713;-83
2022/10/03 11:55:13;;;;;;;;;;;;;;;22.02;42.90;100387.42;104015;1311;62241;-83
2022/10/03 11:57:39;;;;;;;;;;;;;;;22.04;43.03;100385.66;104015;1310;62093;-83
2022/10/03 12:00:13;;;;;;;;;;;;;;;22.05;43.12;100377.48;105116;1309;72938;-84
2022/10/03 12:02:53;;;;;;;;;;;;;;;22.07;43.21;100376.02;105073;1309;76951;-83
2022/10/03 12:05:26;;;;;;;;;;;;;;;22.10;43.28;100371.70;105188;1309;59958;-85
2022/10/03 12:10:38;;;;;;;;;;;;;;;22.14;43.32;100360.46;105282;1309;73891;-84
2022/10/03 12:13:16;;;;;;;;;;;;;;;22.16;43.30;100365.48;105211;1309;60124;-83
2022/10/03 12:15:51;;;;;;;;;;;;;;;22.18;43.35;100361.58;104939;1311;62195;-83
2022/10/03 12:18:20;;;;;;;;;;;;;;;22.19;43.29;100360.00;104370;1311;61877;-83
2022/10/03 12:21:04;;;;;;;;;;;;;;;22.19;43.14;100360.36;104326;1309;73767;-82
2022/10/03 12:23:50;;;;;;;;;;;;;;;22.19;43.12;100362.77;104118;1309;75731;-85
2022/10/03 12:26:17;;;;;;;;;;;;;;;22.17;43.16;100356.62;105359;1308;60264;-82
2022/10/03 12:28:44;;;;;;;;;;;;;;;22.15;43.13;100353.20;104726;1309;61931;-84
2022/10/03 12:31:16;;;;;;;;;;;;;;;22.15;43.17;100365.91;104371;1308;62021;-85
2022/10/03 12:33:48;;;;;;;;;;;;;;;22.15;43.10;100386.00;104361;1309;75586;-82
2022/10/03 12:36:43;;;;;;;;;;;;;;;22.13;42.92;100409.10;104408;1307;61884;-85
2022/10/03 12:39:08;;;;;;;;;;;;;;;22.06;42.84;100414.88;104252;1309;62542;-82
2022/10/03 12:41:40;;;;;;;;;;;;;;;22.06;42.90;100417.70;104455;1309;62591;-82
2022/10/03 12:44:13;;;;;;;;;;;;;;;22.09;43.05;100403.16;104407;1309;75647;-82
2022/10/03 12:46:41;;;;;;;;;;;;;;;22.11;43.17;100410.13;104553;1308;62017;-82
2022/10/03 12:49:19;;;;;;;;;;;;;;;22.14;42.96;100409.44;104542;1308;62056;-85
2022/10/03 12:51:44;;;;;;;;;;;;;;;22.15;43.07;100414.89;104434;1308;72741;-85
2022/10/03 12:54:14;;;;;;;;;;;;;;;22.16;43.04;100427.87;104468;1307;62095;-83
2022/10/03 12:56:41;;;;;;;;;;;;;;;22.17;43.03;100446.45;104356;1308;61982;-83
2022/10/03 12:59:25;;;;;;;;;;;;;;;22.16;43.01;100453.13;104549;1309;62448;-81
2022/10/03 13:02:07;;;;;;;;;;;;;;;22.12;43.01;100458.11;104598;1309;73779;-83
2022/10/03 13:04:51;;;;;;;;;;;;;;;22.09;42.90;100453.54;104423;1308;76508;-83
2022/10/03 13:07:17;;;;;;;;;;;;;;;22.07;43.00;100443.67;105014;1307;60302;-84
2022/10/03 13:09:54;;;;;;;;;;;;;;;22.03;42.89;100428.53;104486;1307;62194;-83
2022/10/03 13:12:22;;;;;;;;;;;;;;;22.02;43.12;100425.20;104510;1309;73234;-85
2022/10/03 13:15:07;;;;;;;;;;;;;;;22.02;42.81;100425.45;104537;1308;75487;-85
2022/10/03 13:17:35;;;;;;;;;;;;;;;22.01;42.91;100413.30;104563;1309;59861;-84
2022/10/03 13:20:05;;;;;;;;;;;;;;;22.00;42.82;100412.89;104624;1309;62079;-84
2022/10/03 13:22:49;;;;;;;;;;;;;;;21.99;42.77;100409.91;104512;1309;74055;-85
2022/10/03 13:25:23;;;;;;;;;;;;;;;21.98;42.67;100407.46;104537;1308;76628;-85